sensor_id;sensor_type;location;lat;lon;timestamp;temperature;humidity
20370;DHT22;10344;47.592;9.600;2023-05-10T00:01:34;14.40;99.90
20370;DHT22;10344;47.592;9.600;2023-05-10T00:04:03;14.40;99.90
20370;DHT22;10344;47.592;9.600;2023-05-10T00:06:31;14.40;99.90
20370;DHT22;10344;47.592;9.600;2023-05-10T00:08:59;14.30;99.90
20370;DHT22;10344;47.592;9.600;2023-05-10T00:11:25;14.40;99.90
20370;DHT22;10344;47.592;9.600;2023-05-10T00:13:51;14.40;99.90
20370;DHT22;10344;47.592;9.600;2023-05-10T00:16:16;14.30;99.90
20370;DHT22;10344;47.592;9.600;2023-05-10T00:18:42;14.30;99.90
20370;DHT22;10344;47.592;9.600;2023-05-10T00:21:07;14.30;99.90
20370;DHT22;10344;47.592;9.600;2023-05-10T00:23:33;14.30;99.90
20370;DHT22;10344;47.592;9.600;2023-05-10T00:26:01;14.30;99.90
20370;DHT22;10344;47.592;9.600;2023-05-10T00:28:30;14.20;99.90
20370;DHT22;10344;47.592;9.600;2023-05-10T00:30:56;14.20;99.90
20370;DHT22;10344;47.592;9.600;2023-05-10T00:33:21;14.20;99.90
20370;DHT22;10344;47.592;9.600;2023-05-10T00:35:47;14.30;99.90
20370;DHT22;10344;47.592;9.600;2023-05-10T00:38:13;14.20;99.90
20370;DHT22;10344;47.592;9.600;2023-05-10T00:40:40;14.00;99.90
20370;DHT22;10344;47.592;9.600;2023-05-10T00:43:06;14.00;99.90
20370;DHT22;10344;47.592;9.600;2023-05-10T00:45:32;14.00;99.90
20370;DHT22;10344;47.592;9.600;2023-05-10T00:48:03;14.00;99.90
20370;DHT22;10344;47.592;9.600;2023-05-10T00:50:32;14.00;99.90
20370;DHT22;10344;47.592;9.600;2023-05-10T00:52:59;14.00;99.90
20370;DHT22;10344;47.592;9.600;2023-05-10T00:55:28;14.00;99.90
20370;DHT22;10344;47.592;9.600;2023-05-10T00:57:56;14.00;99.90
20370;DHT22;10344;47.592;9.600;2023-05-10T01:00:22;13.90;99.90
20370;DHT22;10344;47.592;9.600;2023-05-10T01:02:47;14.00;99.90
20370;DHT22;10344;47.592;9.600;2023-05-10T01:05:17;13.90;99.90
20370;DHT22;10344;47.592;9.600;2023-05-10T01:07:42;13.90;99.90
20370;DHT22;10344;47.592;9.600;2023-05-10T01:15:59;14.10;99.90
20370;DHT22;10344;47.592;9.600;2023-05-10T01:18:29;13.90;99.90
20370;DHT22;10344;47.592;9.600;2023-05-10T01:23:40;13.80;99.90
20370;DHT22;10344;47.592;9.600;2023-05-10T01:31:30;13.70;99.90
20370;DHT22;10344;47.592;9.600;2023-05-10T01:34:34;13.70;99.90
20370;DHT22;10344;47.592;9.600;2023-05-10T01:37:09;13.60;99.90
20370;DHT22;10344;47.592;9.600;2023-05-10T01:39:49;13.60;99.90
20370;DHT22;10344;47.592;9.600;2023-05-10T01:42:21;13.60;99.90
20370;DHT22;10344;47.592;9.600;2023-05-10T01:47:46;13.70;99.90
20370;DHT22;10344;47.592;9.600;2023-05-10T01:50:22;13.70;99.90
20370;DHT22;10344;47.592;9.600;2023-05-10T01:52:53;13.70;99.90
20370;DHT22;10344;47.592;9.600;2023-05-10T01:55:25;13.70;99.90
20370;DHT22;10344;47.592;9.600;2023-05-10T01:58:04;13.60;99.90
20370;DHT22;10344;47.592;9.600;2023-05-10T02:00:32;13.50;99.90
20370;DHT22;10344;47.592;9.600;2023-05-10T02:03:06;13.50;99.90
20370;DHT22;10344;47.592;9.600;2023-05-10T02:05:33;13.60;99.90
20370;DHT22;10344;47.592;9.600;2023-05-10T02:08:06;13.50;99.90
20370;DHT22;10344;47.592;9.600;2023-05-10T02:10:37;13.60;99.90
20370;DHT22;10344;47.592;9.600;2023-05-10T02:13:05;13.60;99.90
20370;DHT22;10344;47.592;9.600;2023-05-10T02:15:33;13.60;99.90
20370;DHT22;10344;47.592;9.600;2023-05-10T02:18:04;13.50;99.90
20370;DHT22;10344;47.592;9.600;2023-05-10T02:20:33;13.50;99.90
20370;DHT22;10344;47.592;9.600;2023-05-10T02:23:01;13.40;99.90
20370;DHT22;10344;47.592;9.600;2023-05-10T02:25:32;13.40;99.90
20370;DHT22;10344;47.592;9.600;2023-05-10T02:28:02;13.40;99.90
20370;DHT22;10344;47.592;9.600;2023-05-10T02:30:32;13.40;99.90
20370;DHT22;10344;47.592;9.600;2023-05-10T02:32:59;13.40;99.90
20370;DHT22;10344;47.592;9.600;2023-05-10T02:35:27;13.40;99.90
20370;DHT22;10344;47.592;9.600;2023-05-10T02:37:53;13.40;99.90
20370;DHT22;10344;47.592;9.600;2023-05-10T02:40:19;13.40;99.90
20370;DHT22;10344;47.592;9.600;2023-05-10T02:42:50;13.50;99.90
20370;DHT22;10344;47.592;9.600;2023-05-10T02:45:23;13.50;99.90
20370;DHT22;10344;47.592;9.600;2023-05-10T02:47:50;13.40;99.90
20370;DHT22;10344;47.592;9.600;2023-05-10T02:50:16;13.40;99.90
20370;DHT22;10344;47.592;9.600;2023-05-10T02:52:46;13.40;99.90
20370;DHT22;10344;47.592;9.600;2023-05-10T02:55:16;13.30;99.90
20370;DHT22;10344;47.592;9.600;2023-05-10T02:57:51;13.30;99.90
20370;DHT22;10344;47.592;9.600;2023-05-10T03:00:18;13.30;99.90
20370;DHT22;10344;47.592;9.600;2023-05-10T03:02:43;13.40;99.90
20370;DHT22;10344;47.592;9.600;2023-05-10T03:05:18;13.40;99.90
20370;DHT22;10344;47.592;9.600;2023-05-10T03:07:44;13.40;99.90
20370;DHT22;10344;47.592;9.600;2023-05-10T03:10:15;13.40;99.90
20370;DHT22;10344;47.592;9.600;2023-05-10T03:12:52;13.30;99.90
20370;DHT22;10344;47.592;9.600;2023-05-10T03:15:37;13.30;99.90
20370;DHT22;10344;47.592;9.600;2023-05-10T03:20:59;13.20;99.90
20370;DHT22;10344;47.592;9.600;2023-05-10T03:23:31;13.20;99.90
20370;DHT22;10344;47.592;9.600;2023-05-10T03:26:04;13.30;99.90
20370;DHT22;10344;47.592;9.600;2023-05-10T03:28:31;13.30;99.90
20370;DHT22;10344;47.592;9.600;2023-05-10T03:30:59;13.20;99.90
20370;DHT22;10344;47.592;9.600;2023-05-10T03:33:26;13.20;99.90
20370;DHT22;10344;47.592;9.600;2023-05-10T03:35:51;13.20;99.90
20370;DHT22;10344;47.592;9.600;2023-05-10T03:38:17;13.20;99.90
20370;DHT22;10344;47.592;9.600;2023-05-10T03:40:43;13.20;99.90
20370;DHT22;10344;47.592;9.600;2023-05-10T03:43:11;13.30;99.90
20370;DHT22;10344;47.592;9.600;2023-05-10T03:45:39;13.30;99.90
20370;DHT22;10344;47.592;9.600;2023-05-10T03:48:10;13.30;99.90
20370;DHT22;10344;47.592;9.600;2023-05-10T03:50:35;13.30;99.90
20370;DHT22;10344;47.592;9.600;2023-05-10T03:53:02;13.30;99.90
20370;DHT22;10344;47.592;9.600;2023-05-10T03:55:28;13.20;99.90
20370;DHT22;10344;47.592;9.600;2023-05-10T03:57:54;13.20;99.90
20370;DHT22;10344;47.592;9.600;2023-05-10T04:00:20;13.30;99.90
20370;DHT22;10344;47.592;9.600;2023-05-10T04:02:50;13.30;99.90
20370;DHT22;10344;47.592;9.600;2023-05-10T04:05:16;13.20;99.90
20370;DHT22;10344;47.592;9.600;2023-05-10T04:07:42;13.20;99.90
20370;DHT22;10344;47.592;9.600;2023-05-10T04:10:10;13.20;99.90
20370;DHT22;10344;47.592;9.600;2023-05-10T04:12:36;13.10;99.90
20370;DHT22;10344;47.592;9.600;2023-05-10T04:15:06;13.20;99.90
20370;DHT22;10344;47.592;9.600;2023-05-10T04:17:34;13.20;99.90
20370;DHT22;10344;47.592;9.600;2023-05-10T04:19:59;13.20;99.90
20370;DHT22;10344;47.592;9.600;2023-05-10T04:22:25;13.20;99.90
20370;DHT22;10344;47.592;9.600;2023-05-10T04:24:59;13.30;99.90
20370;DHT22;10344;47.592;9.600;2023-05-10T04:27:24;13.30;99.90
20370;DHT22;10344;47.592;9.600;2023-05-10T04:29:52;13.30;99.90
20370;DHT22;10344;47.592;9.600;2023-05-10T04:32:18;13.40;99.90
20370;DHT22;10344;47.592;9.600;2023-05-10T04:34:50;13.40;99.90
20370;DHT22;10344;47.592;9.600;2023-05-10T04:37:17;13.40;99.90
20370;DHT22;10344;47.592;9.600;2023-05-10T04:39:45;13.50;99.90
20370;DHT22;10344;47.592;9.600;2023-05-10T04:42:10;13.50;99.90
20370;DHT22;10344;47.592;9.600;2023-05-10T04:44:37;13.50;99.90
20370;DHT22;10344;47.592;9.600;2023-05-10T04:47:02;13.60;99.90
20370;DHT22;10344;47.592;9.600;2023-05-10T04:49:29;13.60;99.90
20370;DHT22;10344;47.592;9.600;2023-05-10T04:51:55;13.70;99.90
20370;DHT22;10344;47.592;9.600;2023-05-10T04:54:29;13.80;99.90
20370;DHT22;10344;47.592;9.600;2023-05-10T04:56:57;13.80;99.90
20370;DHT22;10344;47.592;9.600;2023-05-10T04:59:27;13.90;99.90
20370;DHT22;10344;47.592;9.600;2023-05-10T05:01:53;14.00;99.90
20370;DHT22;10344;47.592;9.600;2023-05-10T05:04:21;14.10;99.90
20370;DHT22;10344;47.592;9.600;2023-05-10T05:06:49;14.20;99.90
20370;DHT22;10344;47.592;9.600;2023-05-10T05:09:32;14.10;99.90
20370;DHT22;10344;47.592;9.600;2023-05-10T05:11:58;14.20;99.90
20370;DHT22;10344;47.592;9.600;2023-05-10T05:14:26;14.40;99.90
20370;DHT22;10344;47.592;9.600;2023-05-10T05:16:52;14.40;99.90
20370;DHT22;10344;47.592;9.600;2023-05-10T05:19:18;14.50;99.90
20370;DHT22;10344;47.592;9.600;2023-05-10T05:21:49;14.50;99.90
20370;DHT22;10344;47.592;9.600;2023-05-10T05:24:15;14.60;99.90
20370;DHT22;10344;47.592;9.600;2023-05-10T05:26:42;14.60;99.90
20370;DHT22;10344;47.592;9.600;2023-05-10T05:29:13;14.60;99.90
20370;DHT22;10344;47.592;9.600;2023-05-10T05:31:41;14.60;99.90
20370;DHT22;10344;47.592;9.600;2023-05-10T05:34:13;14.60;99.90
20370;DHT22;10344;47.592;9.600;2023-05-10T05:36:38;14.60;99.90
20370;DHT22;10344;47.592;9.600;2023-05-10T05:39:04;14.60;99.90
20370;DHT22;10344;47.592;9.600;2023-05-10T05:41:30;14.50;99.90
20370;DHT22;10344;47.592;9.600;2023-05-10T05:44:01;14.50;99.90
20370;DHT22;10344;47.592;9.600;2023-05-10T05:46:27;14.40;99.90
20370;DHT22;10344;47.592;9.600;2023-05-10T05:49:00;14.40;99.90
20370;DHT22;10344;47.592;9.600;2023-05-10T05:51:25;14.30;99.90
20370;DHT22;10344;47.592;9.600;2023-05-10T05:53:53;14.30;99.90
20370;DHT22;10344;47.592;9.600;2023-05-10T05:56:19;14.30;99.90
20370;DHT22;10344;47.592;9.600;2023-05-10T05:58:53;14.40;99.90
20370;DHT22;10344;47.592;9.600;2023-05-10T06:01:23;14.40;99.90
20370;DHT22;10344;47.592;9.600;2023-05-10T06:03:48;14.40;99.90
20370;DHT22;10344;47.592;9.600;2023-05-10T06:06:17;14.40;99.90
20370;DHT22;10344;47.592;9.600;2023-05-10T06:08:52;14.40;99.90
20370;DHT22;10344;47.592;9.600;2023-05-10T06:11:23;14.40;99.90
20370;DHT22;10344;47.592;9.600;2023-05-10T06:13:49;14.40;99.90
20370;DHT22;10344;47.592;9.600;2023-05-10T06:16:17;14.40;99.90
20370;DHT22;10344;47.592;9.600;2023-05-10T06:18:50;14.40;99.90
20370;DHT22;10344;47.592;9.600;2023-05-10T06:21:16;14.50;99.90
20370;DHT22;10344;47.592;9.600;2023-05-10T06:23:47;14.50;99.90
20370;DHT22;10344;47.592;9.600;2023-05-10T06:26:13;14.40;99.90
20370;DHT22;10344;47.592;9.600;2023-05-10T06:28:39;14.40;99.90
20370;DHT22;10344;47.592;9.600;2023-05-10T06:31:06;14.30;99.90
20370;DHT22;10344;47.592;9.600;2023-05-10T06:33:35;14.30;99.90
20370;DHT22;10344;47.592;9.600;2023-05-10T06:36:00;14.30;99.90
20370;DHT22;10344;47.592;9.600;2023-05-10T06:38:26;14.20;99.90
20370;DHT22;10344;47.592;9.600;2023-05-10T06:40:54;14.20;99.90
20370;DHT22;10344;47.592;9.600;2023-05-10T06:43:23;14.20;99.90
20370;DHT22;10344;47.592;9.600;2023-05-10T06:45:50;14.20;99.90
20370;DHT22;10344;47.592;9.600;2023-05-10T06:48:18;14.20;99.90
20370;DHT22;10344;47.592;9.600;2023-05-10T06:50:48;14.30;99.90
20370;DHT22;10344;47.592;9.600;2023-05-10T06:53:13;14.30;99.90
20370;DHT22;10344;47.592;9.600;2023-05-10T06:55:39;14.30;99.90
20370;DHT22;10344;47.592;9.600;2023-05-10T06:58:13;14.40;99.90
20370;DHT22;10344;47.592;9.600;2023-05-10T07:00:41;14.40;99.90
20370;DHT22;10344;47.592;9.600;2023-05-10T07:03:11;14.40;99.90
20370;DHT22;10344;47.592;9.600;2023-05-10T07:05:37;14.40;99.90
20370;DHT22;10344;47.592;9.600;2023-05-10T07:08:02;14.30;99.90
20370;DHT22;10344;47.592;9.600;2023-05-10T07:10:30;14.30;99.90
20370;DHT22;10344;47.592;9.600;2023-05-10T07:13:02;14.20;99.90
20370;DHT22;10344;47.592;9.600;2023-05-10T07:15:28;14.30;99.90
20370;DHT22;10344;47.592;9.600;2023-05-10T07:18:01;14.30;99.90
20370;DHT22;10344;47.592;9.600;2023-05-10T07:20:27;14.30;99.90
20370;DHT22;10344;47.592;9.600;2023-05-10T07:22:52;14.30;99.90
20370;DHT22;10344;47.592;9.600;2023-05-10T07:25:22;14.30;99.90
20370;DHT22;10344;47.592;9.600;2023-05-10T07:27:48;14.30;99.90
20370;DHT22;10344;47.592;9.600;2023-05-10T07:30:18;14.30;99.90
20370;DHT22;10344;47.592;9.600;2023-05-10T07:32:50;14.30;99.90
20370;DHT22;10344;47.592;9.600;2023-05-10T07:35:16;14.30;99.90
20370;DHT22;10344;47.592;9.600;2023-05-10T07:37:49;14.30;99.90
20370;DHT22;10344;47.592;9.600;2023-05-10T07:40:15;14.30;99.90
20370;DHT22;10344;47.592;9.600;2023-05-10T07:42:40;14.30;99.90
20370;DHT22;10344;47.592;9.600;2023-05-10T07:45:06;14.30;99.90
20370;DHT22;10344;47.592;9.600;2023-05-10T07:47:36;14.40;99.90
20370;DHT22;10344;47.592;9.600;2023-05-10T07:50:02;14.40;99.90
20370;DHT22;10344;47.592;9.600;2023-05-10T07:52:28;14.40;99.90
20370;DHT22;10344;47.592;9.600;2023-05-10T07:54:53;14.50;99.90
20370;DHT22;10344;47.592;9.600;2023-05-10T07:57:23;14.60;99.90
20370;DHT22;10344;47.592;9.600;2023-05-10T07:59:49;14.70;99.90
20370;DHT22;10344;47.592;9.600;2023-05-10T08:02:14;14.80;99.90
20370;DHT22;10344;47.592;9.600;2023-05-10T08:04:40;14.80;99.90
20370;DHT22;10344;47.592;9.600;2023-05-10T08:07:06;14.80;99.90
20370;DHT22;10344;47.592;9.600;2023-05-10T08:09:41;14.80;99.90
20370;DHT22;10344;47.592;9.600;2023-05-10T08:12:14;14.80;99.90
20370;DHT22;10344;47.592;9.600;2023-05-10T08:14:41;14.80;99.90
20370;DHT22;10344;47.592;9.600;2023-05-10T08:17:06;14.70;99.90
20370;DHT22;10344;47.592;9.600;2023-05-10T08:19:41;14.70;99.90
20370;DHT22;10344;47.592;9.600;2023-05-10T08:22:17;14.70;99.90
20370;DHT22;10344;47.592;9.600;2023-05-10T08:24:48;14.60;99.90
20370;DHT22;10344;47.592;9.600;2023-05-10T08:27:16;14.60;99.90
20370;DHT22;10344;47.592;9.600;2023-05-10T08:29:44;14.70;99.90
20370;DHT22;10344;47.592;9.600;2023-05-10T08:32:20;14.80;99.90
20370;DHT22;10344;47.592;9.600;2023-05-10T08:34:52;14.90;99.90
20370;DHT22;10344;47.592;9.600;2023-05-10T08:37:17;15.00;99.90
20370;DHT22;10344;47.592;9.600;2023-05-10T08:39:43;15.00;99.90
20370;DHT22;10344;47.592;9.600;2023-05-10T08:42:19;15.00;99.90
20370;DHT22;10344;47.592;9.600;2023-05-10T08:44:52;15.00;99.90
20370;DHT22;10344;47.592;9.600;2023-05-10T08:47:27;15.00;99.90
20370;DHT22;10344;47.592;9.600;2023-05-10T08:49:54;15.10;99.90
20370;DHT22;10344;47.592;9.600;2023-05-10T08:52:24;15.10;99.90
20370;DHT22;10344;47.592;9.600;2023-05-10T08:54:51;15.20;99.90
20370;DHT22;10344;47.592;9.600;2023-05-10T08:57:19;15.30;99.90
20370;DHT22;10344;47.592;9.600;2023-05-10T08:59:49;15.50;99.90
20370;DHT22;10344;47.592;9.600;2023-05-10T09:02:15;15.60;99.90
20370;DHT22;10344;47.592;9.600;2023-05-10T09:04:42;15.60;99.90
20370;DHT22;10344;47.592;9.600;2023-05-10T09:07:08;15.80;99.90
20370;DHT22;10344;47.592;9.600;2023-05-10T09:09:40;15.80;99.90
20370;DHT22;10344;47.592;9.600;2023-05-10T09:12:08;15.70;99.90
20370;DHT22;10344;47.592;9.600;2023-05-10T09:14:37;15.60;99.90
20370;DHT22;10344;47.592;9.600;2023-05-10T09:17:04;15.60;99.90
20370;DHT22;10344;47.592;9.600;2023-05-10T09:19:32;15.70;99.90
20370;DHT22;10344;47.592;9.600;2023-05-10T09:21:58;15.70;99.90
20370;DHT22;10344;47.592;9.600;2023-05-10T09:24:26;15.60;99.90
20370;DHT22;10344;47.592;9.600;2023-05-10T09:26:57;15.50;99.90
20370;DHT22;10344;47.592;9.600;2023-05-10T09:29:44;15.40;99.90
20370;DHT22;10344;47.592;9.600;2023-05-10T09:32:19;15.40;99.90
20370;DHT22;10344;47.592;9.600;2023-05-10T09:34:49;15.30;99.90
20370;DHT22;10344;47.592;9.600;2023-05-10T09:37:19;15.30;99.90
20370;DHT22;10344;47.592;9.600;2023-05-10T09:39:54;15.40;99.90
20370;DHT22;10344;47.592;9.600;2023-05-10T09:42:25;15.50;99.90
20370;DHT22;10344;47.592;9.600;2023-05-10T09:44:51;15.50;99.90
20370;DHT22;10344;47.592;9.600;2023-05-10T09:47:19;15.60;99.90
20370;DHT22;10344;47.592;9.600;2023-05-10T09:49:51;15.70;99.90
20370;DHT22;10344;47.592;9.600;2023-05-10T09:52:17;15.80;99.90
20370;DHT22;10344;47.592;9.600;2023-05-10T09:54:54;16.00;99.90
20370;DHT22;10344;47.592;9.600;2023-05-10T09:57:21;16.20;99.90
20370;DHT22;10344;47.592;9.600;2023-05-10T09:59:53;16.40;99.90
20370;DHT22;10344;47.592;9.600;2023-05-10T10:02:19;16.40;99.90
20370;DHT22;10344;47.592;9.600;2023-05-10T10:04:49;16.40;99.90
20370;DHT22;10344;47.592;9.600;2023-05-10T10:07:27;16.40;99.90
20370;DHT22;10344;47.592;9.600;2023-05-10T10:09:57;16.30;99.90
20370;DHT22;10344;47.592;9.600;2023-05-10T10:12:32;16.20;99.90
20370;DHT22;10344;47.592;9.600;2023-05-10T10:15:04;16.20;99.90
20370;DHT22;10344;47.592;9.600;2023-05-10T10:17:32;16.20;99.90
20370;DHT22;10344;47.592;9.600;2023-05-10T10:20:07;16.10;99.90
20370;DHT22;10344;47.592;9.600;2023-05-10T10:22:37;16.10;99.90
20370;DHT22;10344;47.592;9.600;2023-05-10T10:25:09;16.00;99.90
20370;DHT22;10344;47.592;9.600;2023-05-10T10:30:31;16.00;99.90
20370;DHT22;10344;47.592;9.600;2023-05-10T10:35:47;16.00;99.90
20370;DHT22;10344;47.592;9.600;2023-05-10T10:38:13;16.10;99.90
20370;DHT22;10344;47.592;9.600;2023-05-10T10:40:44;16.20;99.90
20370;DHT22;10344;47.592;9.600;2023-05-10T10:43:29;16.30;99.90
20370;DHT22;10344;47.592;9.600;2023-05-10T10:46:15;16.30;99.90
20370;DHT22;10344;47.592;9.600;2023-05-10T10:48:48;16.30;99.90
20370;DHT22;10344;47.592;9.600;2023-05-10T10:51:14;16.30;99.90
20370;DHT22;10344;47.592;9.600;2023-05-10T10:53:40;16.10;99.90
20370;DHT22;10344;47.592;9.600;2023-05-10T10:56:11;16.00;99.90
20370;DHT22;10344;47.592;9.600;2023-05-10T10:58:39;15.90;99.90
20370;DHT22;10344;47.592;9.600;2023-05-10T11:01:22;15.90;99.90
20370;DHT22;10344;47.592;9.600;2023-05-10T11:06:34;15.80;99.90
20370;DHT22;10344;47.592;9.600;2023-05-10T11:09:14;15.80;99.90
20370;DHT22;10344;47.592;9.600;2023-05-10T11:11:52;15.70;99.90
20370;DHT22;10344;47.592;9.600;2023-05-10T11:14:22;15.70;99.90
20370;DHT22;10344;47.592;9.600;2023-05-10T11:16:56;15.80;99.90
20370;DHT22;10344;47.592;9.600;2023-05-10T11:19:27;15.90;99.90
20370;DHT22;10344;47.592;9.600;2023-05-10T11:24:35;16.10;99.90
20370;DHT22;10344;47.592;9.600;2023-05-10T11:27:04;16.20;99.90
20370;DHT22;10344;47.592;9.600;2023-05-10T11:29:30;16.10;99.90
20370;DHT22;10344;47.592;9.600;2023-05-10T11:31:59;16.20;99.90
20370;DHT22;10344;47.592;9.600;2023-05-10T11:34:28;16.10;99.90
20370;DHT22;10344;47.592;9.600;2023-05-10T11:36:56;16.20;99.90
20370;DHT22;10344;47.592;9.600;2023-05-10T11:39:34;16.30;99.90
20370;DHT22;10344;47.592;9.600;2023-05-10T11:42:02;16.40;99.90
20370;DHT22;10344;47.592;9.600;2023-05-10T11:44:33;16.50;99.90
20370;DHT22;10344;47.592;9.600;2023-05-10T11:47:00;16.60;99.90
20370;DHT22;10344;47.592;9.600;2023-05-10T11:49:26;16.50;99.90
20370;DHT22;10344;47.592;9.600;2023-05-10T11:51:52;16.60;99.90
20370;DHT22;10344;47.592;9.600;2023-05-10T11:54:18;16.60;99.90
20370;DHT22;10344;47.592;9.600;2023-05-10T11:56:43;16.60;99.90
20370;DHT22;10344;47.592;9.600;2023-05-10T11:59:10;16.60;99.90
20370;DHT22;10344;47.592;9.600;2023-05-10T12:01:42;16.70;99.90
20370;DHT22;10344;47.592;9.600;2023-05-10T12:04:08;16.70;99.90
20370;DHT22;10344;47.592;9.600;2023-05-10T12:06:39;16.70;99.90
20370;DHT22;10344;47.592;9.600;2023-05-10T12:09:08;16.70;99.90
20370;DHT22;10344;47.592;9.600;2023-05-10T12:11:40;16.70;99.90
20370;DHT22;10344;47.592;9.600;2023-05-10T12:14:06;16.80;99.90
20370;DHT22;10344;47.592;9.600;2023-05-10T12:16:34;16.80;99.90
20370;DHT22;10344;47.592;9.600;2023-05-10T12:19:03;16.80;99.90
20370;DHT22;10344;47.592;9.600;2023-05-10T12:21:34;16.80;99.90
20370;DHT22;10344;47.592;9.600;2023-05-10T12:24:04;16.70;99.90
20370;DHT22;10344;47.592;9.600;2023-05-10T12:26:35;16.80;99.90
20370;DHT22;10344;47.592;9.600;2023-05-10T12:29:21;16.80;99.90
20370;DHT22;10344;47.592;9.600;2023-05-10T12:31:59;16.80;99.90
20370;DHT22;10344;47.592;9.600;2023-05-10T12:34:31;16.80;99.90
20370;DHT22;10344;47.592;9.600;2023-05-10T12:36:57;16.80;99.90
20370;DHT22;10344;47.592;9.600;2023-05-10T12:39:42;16.80;99.90
20370;DHT22;10344;47.592;9.600;2023-05-10T12:42:08;16.80;99.90
20370;DHT22;10344;47.592;9.600;2023-05-10T12:44:34;16.80;99.90
20370;DHT22;10344;47.592;9.600;2023-05-10T12:46:59;16.80;99.90
20370;DHT22;10344;47.592;9.600;2023-05-10T12:49:25;17.00;99.90
20370;DHT22;10344;47.592;9.600;2023-05-10T12:51:53;17.10;99.90
20370;DHT22;10344;47.592;9.600;2023-05-10T12:54:19;17.10;99.90
20370;DHT22;10344;47.592;9.600;2023-05-10T12:56:44;17.20;99.90
20370;DHT22;10344;47.592;9.600;2023-05-10T12:59:10;17.10;99.90
20370;DHT22;10344;47.592;9.600;2023-05-10T13:01:38;17.10;99.90
20370;DHT22;10344;47.592;9.600;2023-05-10T13:04:03;17.10;99.90
20370;DHT22;10344;47.592;9.600;2023-05-10T13:06:29;17.30;99.90
20370;DHT22;10344;47.592;9.600;2023-05-10T13:08:56;16.90;99.90
20370;DHT22;10344;47.592;9.600;2023-05-10T13:11:25;16.70;99.90
20370;DHT22;10344;47.592;9.600;2023-05-10T13:13:54;16.50;99.90
20370;DHT22;10344;47.592;9.600;2023-05-10T13:16:25;16.60;99.90
20370;DHT22;10344;47.592;9.600;2023-05-10T13:18:51;16.60;99.90
20370;DHT22;10344;47.592;9.600;2023-05-10T13:21:16;16.30;99.90
20370;DHT22;10344;47.592;9.600;2023-05-10T13:23:44;16.00;99.90
20370;DHT22;10344;47.592;9.600;2023-05-10T13:26:12;15.90;99.90
20370;DHT22;10344;47.592;9.600;2023-05-10T13:28:37;15.60;99.90
20370;DHT22;10344;47.592;9.600;2023-05-10T13:31:07;15.60;99.90
20370;DHT22;10344;47.592;9.600;2023-05-10T13:33:33;15.60;99.90
20370;DHT22;10344;47.592;9.600;2023-05-10T13:35:59;15.70;99.90
20370;DHT22;10344;47.592;9.600;2023-05-10T13:38:27;15.70;99.90
20370;DHT22;10344;47.592;9.600;2023-05-10T13:40:57;15.70;99.90
20370;DHT22;10344;47.592;9.600;2023-05-10T13:43:25;15.60;99.90
20370;DHT22;10344;47.592;9.600;2023-05-10T13:45:56;15.70;99.90
20370;DHT22;10344;47.592;9.600;2023-05-10T13:48:22;15.90;99.90
20370;DHT22;10344;47.592;9.600;2023-05-10T13:50:48;16.00;99.90
20370;DHT22;10344;47.592;9.600;2023-05-10T13:53:13;16.00;99.90
20370;DHT22;10344;47.592;9.600;2023-05-10T13:55:39;16.00;99.90
20370;DHT22;10344;47.592;9.600;2023-05-10T13:58:05;16.00;99.90
20370;DHT22;10344;47.592;9.600;2023-05-10T14:00:38;16.10;99.90
20370;DHT22;10344;47.592;9.600;2023-05-10T14:03:06;16.10;99.90
20370;DHT22;10344;47.592;9.600;2023-05-10T14:05:36;16.10;99.90
20370;DHT22;10344;47.592;9.600;2023-05-10T14:08:02;16.20;99.90
20370;DHT22;10344;47.592;9.600;2023-05-10T14:10:29;16.20;99.90
20370;DHT22;10344;47.592;9.600;2023-05-10T14:12:56;16.00;99.90
20370;DHT22;10344;47.592;9.600;2023-05-10T14:15:22;15.80;99.90
20370;DHT22;10344;47.592;9.600;2023-05-10T14:17:50;15.60;99.90
20370;DHT22;10344;47.592;9.600;2023-05-10T14:20:19;15.60;99.90
20370;DHT22;10344;47.592;9.600;2023-05-10T14:22:45;15.50;99.90
20370;DHT22;10344;47.592;9.600;2023-05-10T14:25:10;15.40;99.90
20370;DHT22;10344;47.592;9.600;2023-05-10T14:27:38;15.50;99.90
20370;DHT22;10344;47.592;9.600;2023-05-10T14:30:04;15.50;99.90
20370;DHT22;10344;47.592;9.600;2023-05-10T14:32:32;15.60;99.90
20370;DHT22;10344;47.592;9.600;2023-05-10T14:35:06;15.50;99.90
20370;DHT22;10344;47.592;9.600;2023-05-10T14:37:31;15.50;99.90
20370;DHT22;10344;47.592;9.600;2023-05-10T14:40:06;15.40;99.90
20370;DHT22;10344;47.592;9.600;2023-05-10T14:42:34;15.50;99.90
20370;DHT22;10344;47.592;9.600;2023-05-10T14:45:00;15.60;99.90
20370;DHT22;10344;47.592;9.600;2023-05-10T14:47:28;15.70;99.90
20370;DHT22;10344;47.592;9.600;2023-05-10T14:49:53;15.70;99.90
20370;DHT22;10344;47.592;9.600;2023-05-10T14:52:22;15.80;99.90
20370;DHT22;10344;47.592;9.600;2023-05-10T14:54:50;15.80;99.90
20370;DHT22;10344;47.592;9.600;2023-05-10T14:57:16;15.80;99.90
20370;DHT22;10344;47.592;9.600;2023-05-10T14:59:41;15.80;99.90
20370;DHT22;10344;47.592;9.600;2023-05-10T15:02:09;15.90;99.90
20370;DHT22;10344;47.592;9.600;2023-05-10T15:04:38;15.90;99.90
20370;DHT22;10344;47.592;9.600;2023-05-10T15:07:04;15.90;99.90
20370;DHT22;10344;47.592;9.600;2023-05-10T15:09:33;16.00;99.90
20370;DHT22;10344;47.592;9.600;2023-05-10T15:12:06;15.80;99.90
20370;DHT22;10344;47.592;9.600;2023-05-10T15:14:34;15.90;99.90
20370;DHT22;10344;47.592;9.600;2023-05-10T15:17:02;16.00;99.90
20370;DHT22;10344;47.592;9.600;2023-05-10T15:19:27;16.00;99.90
20370;DHT22;10344;47.592;9.600;2023-05-10T15:21:54;16.00;99.90
20370;DHT22;10344;47.592;9.600;2023-05-10T15:24:23;16.00;99.90
20370;DHT22;10344;47.592;9.600;2023-05-10T15:26:54;15.90;99.90
20370;DHT22;10344;47.592;9.600;2023-05-10T15:29:24;15.80;99.90
20370;DHT22;10344;47.592;9.600;2023-05-10T15:31:58;15.80;99.90
20370;DHT22;10344;47.592;9.600;2023-05-10T15:34:24;15.80;99.90
20370;DHT22;10344;47.592;9.600;2023-05-10T15:36:49;15.80;99.90
20370;DHT22;10344;47.592;9.600;2023-05-10T15:39:15;15.80;99.90
20370;DHT22;10344;47.592;9.600;2023-05-10T15:41:43;15.70;99.90
20370;DHT22;10344;47.592;9.600;2023-05-10T15:44:08;15.60;99.90
20370;DHT22;10344;47.592;9.600;2023-05-10T15:46:36;15.60;99.90
20370;DHT22;10344;47.592;9.600;2023-05-10T15:49:04;15.40;99.90
20370;DHT22;10344;47.592;9.600;2023-05-10T15:51:31;15.30;99.90
20370;DHT22;10344;47.592;9.600;2023-05-10T15:53:58;15.20;99.90
20370;DHT22;10344;47.592;9.600;2023-05-10T15:56:24;15.20;99.90
20370;DHT22;10344;47.592;9.600;2023-05-10T15:58:53;15.20;99.90
20370;DHT22;10344;47.592;9.600;2023-05-10T16:01:21;15.20;99.90
20370;DHT22;10344;47.592;9.600;2023-05-10T16:03:47;15.10;99.90
20370;DHT22;10344;47.592;9.600;2023-05-10T16:06:12;15.00;99.90
20370;DHT22;10344;47.592;9.600;2023-05-10T16:08:44;14.90;99.90
20370;DHT22;10344;47.592;9.600;2023-05-10T16:11:12;14.90;99.90